sensor_id;sensor_type;location;lat;lon;timestamp;pressure;altitude;pressure_sealevel;temperature;humidity
70815;BME280;58428;49.478;10.986;2022-08-21T00:02:26;98424.78;;;18.51;83.84
70815;BME280;58428;49.478;10.986;2022-08-21T00:04:51;98416.50;;;18.48;84.19
70815;BME280;58428;49.478;10.986;2022-08-21T00:07:18;98421.13;;;18.41;84.33
70815;BME280;58428;49.478;10.986;2022-08-21T00:09:44;98418.06;;;18.45;83.73
70815;BME280;58428;49.478;10.986;2022-08-21T00:12:10;98420.06;;;18.48;83.01
70815;BME280;58428;49.478;10.986;2022-08-21T00:14:36;98427.50;;;18.51;83.07
70815;BME280;58428;49.478;10.986;2022-08-21T00:17:03;98430.28;;;18.55;82.88
70815;BME280;58428;49.478;10.986;2022-08-21T00:19:29;98425.97;;;18.54;82.90
70815;BME280;58428;49.478;10.986;2022-08-21T00:21:55;98418.91;;;18.53;82.91
70815;BME280;58428;49.478;10.986;2022-08-21T00:24:21;98417.34;;;18.52;82.91
70815;BME280;58428;49.478;10.986;2022-08-21T00:26:48;98407.91;;;18.49;82.80
70815;BME280;58428;49.478;10.986;2022-08-21T00:29:14;98409.50;;;18.50;82.77
70815;BME280;58428;49.478;10.986;2022-08-21T00:31:41;98416.41;;;18.38;85.04
70815;BME280;58428;49.478;10.986;2022-08-21T00:34:07;98406.41;;;18.16;86.92
70815;BME280;58428;49.478;10.986;2022-08-21T00:36:33;98409.09;;;18.12;86.18
70815;BME280;58428;49.478;10.986;2022-08-21T00:38:59;98405.69;;;18.22;85.00
70815;BME280;58428;49.478;10.986;2022-08-21T00:41:25;98403.41;;;18.28;84.58
70815;BME280;58428;49.478;10.986;2022-08-21T00:43:54;98410.75;;;18.20;86.46
70815;BME280;58428;49.478;10.986;2022-08-21T00:46:20;98413.75;;;18.08;87.35
70815;BME280;58428;49.478;10.986;2022-08-21T00:48:46;98413.91;;;17.93;88.50
70815;BME280;58428;49.478;10.986;2022-08-21T00:51:21;98429.19;;;17.94;88.46
70815;BME280;58428;49.478;10.986;2022-08-21T00:53:53;98414.75;;;17.97;87.74
70815;BME280;58428;49.478;10.986;2022-08-21T00:56:21;98422.88;;;17.90;87.71
70815;BME280;58428;49.478;10.986;2022-08-21T00:58:48;98421.41;;;18.00;88.02
70815;BME280;58428;49.478;10.986;2022-08-21T01:01:14;98425.66;;;17.94;88.19
70815;BME280;58428;49.478;10.986;2022-08-21T01:03:40;98432.41;;;18.03;87.58
70815;BME280;58428;49.478;10.986;2022-08-21T01:06:07;98419.56;;;18.07;86.85
70815;BME280;58428;49.478;10.986;2022-08-21T01:08:34;98418.38;;;18.05;87.00
70815;BME280;58428;49.478;10.986;2022-08-21T01:11:01;98422.38;;;18.10;86.71
70815;BME280;58428;49.478;10.986;2022-08-21T01:13:29;98425.75;;;18.01;87.16
70815;BME280;58428;49.478;10.986;2022-08-21T01:15:58;98422.88;;;17.90;86.66
70815;BME280;58428;49.478;10.986;2022-08-21T01:18:25;98418.44;;;17.79;87.46
70815;BME280;58428;49.478;10.986;2022-08-21T01:23:36;98429.03;;;17.84;87.28
70815;BME280;58428;49.478;10.986;2022-08-21T01:26:03;98421.13;;;17.75;87.79
70815;BME280;58428;49.478;10.986;2022-08-21T01:28:34;98426.69;;;17.82;86.90
70815;BME280;58428;49.478;10.986;2022-08-21T01:31:05;98422.84;;;17.87;86.32
70815;BME280;58428;49.478;10.986;2022-08-21T01:33:30;98422.03;;;17.86;86.65
70815;BME280;58428;49.478;10.986;2022-08-21T01:35:56;98423.03;;;17.71;87.28
70815;BME280;58428;49.478;10.986;2022-08-21T01:38:21;98423.50;;;17.77;86.79
70815;BME280;58428;49.478;10.986;2022-08-21T01:40:47;98420.00;;;17.80;86.33
70815;BME280;58428;49.478;10.986;2022-08-21T01:43:14;98418.88;;;17.84;85.89
70815;BME280;58428;49.478;10.986;2022-08-21T01:45:39;98414.59;;;17.83;86.25
70815;BME280;58428;49.478;10.986;2022-08-21T01:48:05;98415.25;;;17.73;87.63
70815;BME280;58428;49.478;10.986;2022-08-21T01:50:30;98416.72;;;17.68;87.99
70815;BME280;58428;49.478;10.986;2022-08-21T01:52:56;98421.53;;;17.48;89.23
70815;BME280;58428;49.478;10.986;2022-08-21T01:55:23;98421.59;;;17.52;89.06
70815;BME280;58428;49.478;10.986;2022-08-21T01:57:49;98420.00;;;17.51;89.84
70815;BME280;58428;49.478;10.986;2022-08-21T02:00:17;98418.38;;;17.46;89.72
70815;BME280;58428;49.478;10.986;2022-08-21T02:02:50;98418.44;;;17.50;89.41
70815;BME280;58428;49.478;10.986;2022-08-21T02:05:16;98412.91;;;17.46;89.15
70815;BME280;58428;49.478;10.986;2022-08-21T02:07:46;98412.16;;;17.49;89.30
70815;BME280;58428;49.478;10.986;2022-08-21T02:10:14;98402.28;;;17.41;89.72
70815;BME280;58428;49.478;10.986;2022-08-21T02:12:42;98394.25;;;17.55;89.32
70815;BME280;58428;49.478;10.986;2022-08-21T02:15:08;98400.25;;;17.64;88.48
70815;BME280;58428;49.478;10.986;2022-08-21T02:17:55;98398.88;;;17.77;87.82
70815;BME280;58428;49.478;10.986;2022-08-21T02:20:31;98397.41;;;17.86;87.37
70815;BME280;58428;49.478;10.986;2022-08-21T02:22:58;98394.75;;;17.93;87.02
70815;BME280;58428;49.478;10.986;2022-08-21T02:25:24;98401.19;;;17.75;88.48
70815;BME280;58428;49.478;10.986;2022-08-21T02:27:51;98411.63;;;17.66;89.04
70815;BME280;58428;49.478;10.986;2022-08-21T02:30:21;98407.72;;;17.67;88.63
70815;BME280;58428;49.478;10.986;2022-08-21T02:32:47;98412.91;;;17.75;87.96
70815;BME280;58428;49.478;10.986;2022-08-21T02:35:14;98411.38;;;17.78;87.80
70815;BME280;58428;49.478;10.986;2022-08-21T02:37:52;98407.50;;;17.79;87.53
70815;BME280;58428;49.478;10.986;2022-08-21T02:40:23;98410.44;;;17.67;87.83
70815;BME280;58428;49.478;10.986;2022-08-21T02:42:49;98414.66;;;17.61;89.18
70815;BME280;58428;49.478;10.986;2022-08-21T02:45:15;98412.69;;;17.58;89.43
70815;BME280;58428;49.478;10.986;2022-08-21T02:47:54;98413.19;;;17.67;88.76
70815;BME280;58428;49.478;10.986;2022-08-21T02:50:26;98417.56;;;17.71;88.72
70815;BME280;58428;49.478;10.986;2022-08-21T02:52:52;98414.81;;;17.71;88.62
70815;BME280;58428;49.478;10.986;2022-08-21T02:55:19;98411.66;;;17.69;88.83
70815;BME280;58428;49.478;10.986;2022-08-21T02:57:47;98408.75;;;17.56;89.17
70815;BME280;58428;49.478;10.986;2022-08-21T03:00:16;98406.28;;;17.47;90.29
70815;BME280;58428;49.478;10.986;2022-08-21T03:02:41;98418.97;;;17.33;91.06
70815;BME280;58428;49.478;10.986;2022-08-21T03:05:08;98410.75;;;17.33;90.71
70815;BME280;58428;49.478;10.986;2022-08-21T03:07:36;98407.06;;;17.22;91.94
70815;BME280;58428;49.478;10.986;2022-08-21T03:10:03;98407.88;;;17.23;91.96
70815;BME280;58428;49.478;10.986;2022-08-21T03:12:29;98407.06;;;17.22;91.80
70815;BME280;58428;49.478;10.986;2022-08-21T03:14:54;98416.03;;;17.19;92.44
70815;BME280;58428;49.478;10.986;2022-08-21T03:17:20;98408.09;;;17.14;92.73
70815;BME280;58428;49.478;10.986;2022-08-21T03:19:45;98418.00;;;17.19;92.50
70815;BME280;58428;49.478;10.986;2022-08-21T03:22:10;98418.00;;;17.19;92.62
70815;BME280;58428;49.478;10.986;2022-08-21T03:24:36;98418.91;;;17.30;92.26
70815;BME280;58428;49.478;10.986;2022-08-21T03:29:28;98414.88;;;17.46;91.13
70815;BME280;58428;49.478;10.986;2022-08-21T03:31:54;98412.63;;;17.55;90.28
70815;BME280;58428;49.478;10.986;2022-08-21T03:34:20;98415.06;;;17.60;89.80
70815;BME280;58428;49.478;10.986;2022-08-21T03:36:47;98420.47;;;17.56;89.77
70815;BME280;58428;49.478;10.986;2022-08-21T03:39:14;98416.63;;;17.61;89.47
70815;BME280;58428;49.478;10.986;2022-08-21T03:41:39;98417.44;;;17.65;89.54
70815;BME280;58428;49.478;10.986;2022-08-21T03:44:05;98421.06;;;17.72;89.18
70815;BME280;58428;49.478;10.986;2022-08-21T03:46:30;98417.22;;;17.76;88.93
70815;BME280;58428;49.478;10.986;2022-08-21T03:48:56;98427.00;;;17.48;90.25
70815;BME280;58428;49.478;10.986;2022-08-21T03:51:22;98424.00;;;17.57;89.76
70815;BME280;58428;49.478;10.986;2022-08-21T03:53:47;98428.41;;;17.65;89.60
70815;BME280;58428;49.478;10.986;2022-08-21T03:56:14;98432.16;;;17.53;89.54
70815;BME280;58428;49.478;10.986;2022-08-21T03:58:41;98438.03;;;17.55;89.38
70815;BME280;58428;49.478;10.986;2022-08-21T04:01:07;98432.72;;;17.36;89.72
70815;BME280;58428;49.478;10.986;2022-08-21T04:03:34;98439.22;;;17.29;90.06
70815;BME280;58428;49.478;10.986;2022-08-21T04:06:00;98437.84;;;17.41;89.92
70815;BME280;58428;49.478;10.986;2022-08-21T04:08:26;98438.69;;;17.45;89.98
70815;BME280;58428;49.478;10.986;2022-08-21T04:10:55;98439.75;;;17.37;90.10
70815;BME280;58428;49.478;10.986;2022-08-21T04:13:22;98437.91;;;17.45;89.84
70815;BME280;58428;49.478;10.986;2022-08-21T04:15:48;98438.38;;;17.50;89.17
70815;BME280;58428;49.478;10.986;2022-08-21T04:18:14;98443.47;;;17.52;89.89
70815;BME280;58428;49.478;10.986;2022-08-21T04:20:42;98436.53;;;17.58;89.46
70815;BME280;58428;49.478;10.986;2022-08-21T04:23:08;98437.53;;;17.46;90.00
70815;BME280;58428;49.478;10.986;2022-08-21T04:25:34;98434.22;;;17.34;90.92
70815;BME280;58428;49.478;10.986;2022-08-21T04:28:01;98431.94;;;17.14;91.78
70815;BME280;58428;49.478;10.986;2022-08-21T04:30:27;98443.91;;;17.06;92.57
70815;BME280;58428;49.478;10.986;2022-08-21T04:32:52;98441.59;;;17.08;92.84
70815;BME280;58428;49.478;10.986;2022-08-21T04:35:22;98449.66;;;16.97;93.68
70815;BME280;58428;49.478;10.986;2022-08-21T04:37:50;98446.28;;;17.07;93.51
70815;BME280;58428;49.478;10.986;2022-08-21T04:40:19;98452.41;;;17.23;92.75
70815;BME280;58428;49.478;10.986;2022-08-21T04:42:49;98454.94;;;17.35;91.88
70815;BME280;58428;49.478;10.986;2022-08-21T04:45:22;98460.91;;;17.40;91.32
70815;BME280;58428;49.478;10.986;2022-08-21T04:47:50;98460.00;;;17.33;91.27
70815;BME280;58428;49.478;10.986;2022-08-21T04:50:16;98466.78;;;17.42;90.98
70815;BME280;58428;49.478;10.986;2022-08-21T04:52:41;98466.50;;;17.51;90.55
70815;BME280;58428;49.478;10.986;2022-08-21T04:55:07;98468.25;;;17.36;90.69
70815;BME280;58428;49.478;10.986;2022-08-21T04:57:33;98464.41;;;17.41;90.98
70815;BME280;58428;49.478;10.986;2022-08-21T05:00:00;98476.97;;;17.45;91.12
70815;BME280;58428;49.478;10.986;2022-08-21T05:02:26;98478.56;;;17.46;91.00
70815;BME280;58428;49.478;10.986;2022-08-21T05:04:54;98480.97;;;17.51;90.91
70815;BME280;58428;49.478;10.986;2022-08-21T05:07:26;98481.50;;;17.60;90.76
70815;BME280;58428;49.478;10.986;2022-08-21T05:09:53;98479.13;;;17.59;90.83
70815;BME280;58428;49.478;10.986;2022-08-21T05:12:19;98484.31;;;17.67;90.60
70815;BME280;58428;49.478;10.986;2022-08-21T05:14:44;98486.75;;;17.72;90.37
70815;BME280;58428;49.478;10.986;2022-08-21T05:17:10;98480.63;;;17.82;89.63
70815;BME280;58428;49.478;10.986;2022-08-21T05:19:36;98485.00;;;17.86;89.56
70815;BME280;58428;49.478;10.986;2022-08-21T05:22:01;98480.56;;;17.75;89.96
70815;BME280;58428;49.478;10.986;2022-08-21T05:24:27;98478.31;;;17.84;89.63
70815;BME280;58428;49.478;10.986;2022-08-21T05:26:53;98481.41;;;17.82;89.67
70815;BME280;58428;49.478;10.986;2022-08-21T05:29:19;98487.69;;;17.83;89.54
70815;BME280;58428;49.478;10.986;2022-08-21T05:31:47;98488.28;;;17.69;89.83
70815;BME280;58428;49.478;10.986;2022-08-21T05:34:18;98491.03;;;17.69;89.82
70815;BME280;58428;49.478;10.986;2022-08-21T05:36:44;98489.25;;;17.84;89.48
70815;BME280;58428;49.478;10.986;2022-08-21T05:39:12;98487.22;;;17.77;89.30
70815;BME280;58428;49.478;10.986;2022-08-21T05:41:37;98492.78;;;17.84;89.43
70815;BME280;58428;49.478;10.986;2022-08-21T05:44:03;98488.75;;;17.75;89.24
70815;BME280;58428;49.478;10.986;2022-08-21T05:46:29;98491.91;;;17.77;88.99
70815;BME280;58428;49.478;10.986;2022-08-21T05:48:54;98488.56;;;17.90;89.33
70815;BME280;58428;49.478;10.986;2022-08-21T05:51:19;98487.88;;;17.97;88.93
70815;BME280;58428;49.478;10.986;2022-08-21T05:53:45;98487.06;;;17.93;88.90
70815;BME280;58428;49.478;10.986;2022-08-21T05:56:13;98484.06;;;18.05;88.94
70815;BME280;58428;49.478;10.986;2022-08-21T05:58:40;98492.19;;;18.23;88.48
70815;BME280;58428;49.478;10.986;2022-08-21T06:01:06;98495.22;;;18.18;87.83
70815;BME280;58428;49.478;10.986;2022-08-21T06:03:34;98487.31;;;18.10;87.97
70815;BME280;58428;49.478;10.986;2022-08-21T06:06:00;98491.13;;;18.05;88.30
70815;BME280;58428;49.478;10.986;2022-08-21T06:08:27;98484.31;;;18.22;88.61
70815;BME280;58428;49.478;10.986;2022-08-21T06:10:54;98488.09;;;18.43;88.09
70815;BME280;58428;49.478;10.986;2022-08-21T06:13:22;98488.16;;;18.50;87.52
70815;BME280;58428;49.478;10.986;2022-08-21T06:15:50;98496.63;;;18.38;87.09
70815;BME280;58428;49.478;10.986;2022-08-21T06:18:16;98492.91;;;18.20;87.94
70815;BME280;58428;49.478;10.986;2022-08-21T06:20:45;98500.56;;;18.41;87.60
70815;BME280;58428;49.478;10.986;2022-08-21T06:23:11;98503.63;;;18.32;86.73
70815;BME280;58428;49.478;10.986;2022-08-21T06:25:37;98502.84;;;18.32;87.02
70815;BME280;58428;49.478;10.986;2022-08-21T06:28:05;98500.97;;;18.39;86.73
70815;BME280;58428;49.478;10.986;2022-08-21T06:30:32;98498.59;;;18.38;86.77
70815;BME280;58428;49.478;10.986;2022-08-21T06:32:58;98501.03;;;18.46;86.81
70815;BME280;58428;49.478;10.986;2022-08-21T06:35:23;98502.72;;;18.57;86.39
70815;BME280;58428;49.478;10.986;2022-08-21T06:40:36;98518.19;;;18.72;86.07
70815;BME280;58428;49.478;10.986;2022-08-21T06:43:10;98514.03;;;18.88;85.13
70815;BME280;58428;49.478;10.986;2022-08-21T06:45:37;98506.03;;;19.09;84.36
70815;BME280;58428;49.478;10.986;2022-08-21T06:48:04;98513.53;;;19.16;83.62
70815;BME280;58428;49.478;10.986;2022-08-21T06:50:30;98511.63;;;18.83;83.74
70815;BME280;58428;49.478;10.986;2022-08-21T06:53:07;98516.22;;;18.73;83.81
70815;BME280;58428;49.478;10.986;2022-08-21T06:55:33;98516.44;;;18.57;84.56
70815;BME280;58428;49.478;10.986;2022-08-21T06:57:59;98518.25;;;18.43;85.47
70815;BME280;58428;49.478;10.986;2022-08-21T07:00:25;98520.97;;;18.43;85.09
70815;BME280;58428;49.478;10.986;2022-08-21T07:02:51;98523.81;;;18.53;84.88
70815;BME280;58428;49.478;10.986;2022-08-21T07:05:17;98516.81;;;18.56;84.79
70815;BME280;58428;49.478;10.986;2022-08-21T07:07:42;98519.75;;;18.41;85.00
70815;BME280;58428;49.478;10.986;2022-08-21T07:10:08;98523.81;;;18.53;84.81
70815;BME280;58428;49.478;10.986;2022-08-21T07:12:33;98521.09;;;18.53;84.81
70815;BME280;58428;49.478;10.986;2022-08-21T07:15:00;98527.13;;;18.69;84.70
70815;BME280;58428;49.478;10.986;2022-08-21T07:17:27;98518.22;;;18.76;84.62
70815;BME280;58428;49.478;10.986;2022-08-21T07:19:52;98520.69;;;18.91;84.10
70815;BME280;58428;49.478;10.986;2022-08-21T07:22:20;98518.59;;;19.14;83.38
70815;BME280;58428;49.478;10.986;2022-08-21T07:24:46;98517.09;;;19.19;83.25
70815;BME280;58428;49.478;10.986;2022-08-21T07:27:12;98516.09;;;19.41;82.83
70815;BME280;58428;49.478;10.986;2022-08-21T07:29:38;98520.19;;;19.64;82.27
70815;BME280;58428;49.478;10.986;2022-08-21T07:32:03;98514.09;;;19.85;81.49
70815;BME280;58428;49.478;10.986;2022-08-21T07:34:29;98514.09;;;19.85;80.91
70815;BME280;58428;49.478;10.986;2022-08-21T07:36:55;98516.88;;;19.92;80.66
70815;BME280;58428;49.478;10.986;2022-08-21T07:39:24;98518.84;;;19.94;79.79
70815;BME280;58428;49.478;10.986;2022-08-21T07:41:50;98521.59;;;19.94;80.20
70815;BME280;58428;49.478;10.986;2022-08-21T07:44:17;98516.88;;;19.92;79.78
70815;BME280;58428;49.478;10.986;2022-08-21T07:46:42;98513.63;;;19.79;79.77
70815;BME280;58428;49.478;10.986;2022-08-21T07:49:08;98516.59;;;19.54;80.41
70815;BME280;58428;49.478;10.986;2022-08-21T07:51:34;98523.94;;;19.43;81.65
70815;BME280;58428;49.478;10.986;2022-08-21T07:54:00;98518.38;;;19.32;81.23
70815;BME280;58428;49.478;10.986;2022-08-21T07:56:26;98522.94;;;19.64;81.25
70815;BME280;58428;49.478;10.986;2022-08-21T07:58:52;98515.97;;;19.77;80.05
70815;BME280;58428;49.478;10.986;2022-08-21T08:01:18;98508.25;;;19.93;80.44
70815;BME280;58428;49.478;10.986;2022-08-21T08:03:44;98505.69;;;20.28;79.95
70815;BME280;58428;49.478;10.986;2022-08-21T08:06:11;98507.31;;;20.46;78.18
70815;BME280;58428;49.478;10.986;2022-08-21T08:08:42;98510.38;;;20.24;78.42
70815;BME280;58428;49.478;10.986;2022-08-21T08:11:09;98510.06;;;20.42;78.84
70815;BME280;58428;49.478;10.986;2022-08-21T08:13:53;98504.25;;;20.61;77.02
70815;BME280;58428;49.478;10.986;2022-08-21T08:16:19;98500.25;;;20.41;77.60
70815;BME280;58428;49.478;10.986;2022-08-21T08:18:45;98511.28;;;20.59;78.19
70815;BME280;58428;49.478;10.986;2022-08-21T08:21:12;98508.50;;;20.45;76.97
70815;BME280;58428;49.478;10.986;2022-08-21T08:23:38;98506.94;;;20.51;77.43
70815;BME280;58428;49.478;10.986;2022-08-21T08:26:04;98515.25;;;20.61;77.09
70815;BME280;58428;49.478;10.986;2022-08-21T08:28:30;98511.78;;;20.78;76.35
70815;BME280;58428;49.478;10.986;2022-08-21T08:30:58;98504.72;;;20.87;76.31
70815;BME280;58428;49.478;10.986;2022-08-21T08:33:23;98505.94;;;20.97;76.03
70815;BME280;58428;49.478;10.986;2022-08-21T08:35:51;98506.72;;;21.18;75.36
70815;BME280;58428;49.478;10.986;2022-08-21T08:38:19;98498.44;;;20.97;74.61
70815;BME280;58428;49.478;10.986;2022-08-21T08:41:10;98501.59;;;21.09;74.74
70815;BME280;58428;49.478;10.986;2022-08-21T08:43:37;98496.13;;;21.37;75.06
70815;BME280;58428;49.478;10.986;2022-08-21T08:46:08;98489.44;;;21.73;74.09
70815;BME280;58428;49.478;10.986;2022-08-21T08:48:51;98490.56;;;21.89;72.93
70815;BME280;58428;49.478;10.986;2022-08-21T08:57:28;98489.94;;;22.59;70.92
70815;BME280;58428;49.478;10.986;2022-08-21T08:59:59;98494.16;;;22.78;70.21
70815;BME280;58428;49.478;10.986;2022-08-21T09:02:25;98491.47;;;22.67;69.50
70815;BME280;58428;49.478;10.986;2022-08-21T09:04:53;98492.16;;;22.89;69.92
70815;BME280;58428;49.478;10.986;2022-08-21T09:10:19;98496.06;;;22.94;68.43
70815;BME280;58428;49.478;10.986;2022-08-21T09:13:03;98497.81;;;22.57;68.11
70815;BME280;58428;49.478;10.986;2022-08-21T09:21:05;98484.25;;;22.84;68.20
70815;BME280;58428;49.478;10.986;2022-08-21T09:24:29;98488.41;;;22.52;67.33
70815;BME280;58428;49.478;10.986;2022-08-21T09:27:11;98482.16;;;23.08;68.47
70815;BME280;58428;49.478;10.986;2022-08-21T09:29:40;98481.41;;;23.51;67.05
70815;BME280;58428;49.478;10.986;2022-08-21T09:32:22;98481.97;;;23.79;65.20
70815;BME280;58428;49.478;10.986;2022-08-21T09:37:35;98482.25;;;23.45;64.76
70815;BME280;58428;49.478;10.986;2022-08-21T09:45:42;98477.66;;;23.28;64.99
70815;BME280;58428;49.478;10.986;2022-08-21T09:48:23;98466.38;;;23.59;64.93
70815;BME280;58428;49.478;10.986;2022-08-21T09:50:52;98466.88;;;23.87;64.82
70815;BME280;58428;49.478;10.986;2022-08-21T09:53:27;98465.34;;;23.39;62.80
70815;BME280;58428;49.478;10.986;2022-08-21T09:55:58;98456.06;;;23.16;65.05
70815;BME280;58428;49.478;10.986;2022-08-21T09:58:47;98452.78;;;23.31;64.22
70815;BME280;58428;49.478;10.986;2022-08-21T10:01:20;98464.56;;;22.85;64.62
70815;BME280;58428;49.478;10.986;2022-08-21T10:03:46;98466.66;;;22.64;65.11
70815;BME280;58428;49.478;10.986;2022-08-21T10:06:25;98458.63;;;22.16;66.31
70815;BME280;58428;49.478;10.986;2022-08-21T10:09:07;98459.81;;;22.11;66.35
70815;BME280;58428;49.478;10.986;2022-08-21T10:11:35;98457.06;;;22.15;66.33
70815;BME280;58428;49.478;10.986;2022-08-21T10:14:33;98455.41;;;22.31;66.43
70815;BME280;58428;49.478;10.986;2022-08-21T10:19:54;98451.50;;;22.99;65.08
70815;BME280;58428;49.478;10.986;2022-08-21T10:30:07;98457.84;;;22.90;63.07
70815;BME280;58428;49.478;10.986;2022-08-21T10:35:24;98457.50;;;23.34;62.83
70815;BME280;58428;49.478;10.986;2022-08-21T10:46:53;98443.84;;;23.17;63.67
70815;BME280;58428;49.478;10.986;2022-08-21T10:55:14;98440.22;;;23.27;62.78
70815;BME280;58428;49.478;10.986;2022-08-21T11:00:17;98432.84;;;23.57;62.42
70815;BME280;58428;49.478;10.986;2022-08-21T11:03:04;98427.63;;;23.66;61.79
70815;BME280;58428;49.478;10.986;2022-08-21T11:05:42;98430.38;;;23.69;62.25
70815;BME280;58428;49.478;10.986;2022-08-21T11:08:29;98429.81;;;23.85;62.14
70815;BME280;58428;49.478;10.986;2022-08-21T11:11:09;98423.38;;;23.95;62.60
70815;BME280;58428;49.478;10.986;2022-08-21T11:13:44;98415.66;;;24.12;62.04
70815;BME280;58428;49.478;10.986;2022-08-21T11:16:21;98420.63;;;24.24;61.18
70815;BME280;58428;49.478;10.986;2022-08-21T11:19:12;98422.25;;;24.22;59.52
70815;BME280;58428;49.478;10.986;2022-08-21T11:21:54;98414.75;;;24.19;61.12
70815;BME280;58428;49.478;10.986;2022-08-21T11:27:33;98419.09;;;24.20;59.79
70815;BME280;58428;49.478;10.986;2022-08-21T11:29:41;98411.25;;;24.15;60.06
70815;BME280;58428;49.478;10.986;2022-08-21T11:37:27;98407.66;;;24.51;57.98
70815;BME280;58428;49.478;10.986;2022-08-21T11:45:55;98409.00;;;24.66;56.74
70815;BME280;58428;49.478;10.986;2022-08-21T11:51:11;98392.56;;;24.81;55.88
70815;BME280;58428;49.478;10.986;2022-08-21T11:56:32;98386.34;;;24.74;54.41
70815;BME280;58428;49.478;10.986;2022-08-21T11:59:10;98382.22;;;24.85;55.20
70815;BME280;58428;49.478;10.986;2022-08-21T12:01:40;98385.16;;;25.01;55.35
70815;BME280;58428;49.478;10.986;2022-08-21T12:04:15;98380.44;;;25.21;55.49
70815;BME280;58428;49.478;10.986;2022-08-21T12:06:41;98372.91;;;25.44;54.99
70815;BME280;58428;49.478;10.986;2022-08-21T12:09:34;98368.38;;;25.53;52.89
70815;BME280;58428;49.478;10.986;2022-08-21T12:14:48;98364.84;;;25.53;49.73
70815;BME280;58428;49.478;10.986;2022-08-21T12:17:23;98364.66;;;25.41;50.77
70815;BME280;58428;49.478;10.986;2022-08-21T12:20:00;98360.13;;;24.82;51.33
70815;BME280;58428;49.478;10.986;2022-08-21T12:23:12;98357.81;;;25.03;51.62
70815;BME280;58428;49.478;10.986;2022-08-21T12:26:03;98357.38;;;25.27;52.30
70815;BME280;58428;49.478;10.986;2022-08-21T12:28:34;98354.28;;;25.45;51.27
70815;BME280;58428;49.478;10.986;2022-08-21T12:31:00;98356.59;;;25.50;50.67
70815;BME280;58428;49.478;10.986;2022-08-21T12:33:53;98353.94;;;25.43;49.77
70815;BME280;58428;49.478;10.986;2022-08-21T12:36:26;98359.41;;;25.69;50.98
70815;BME280;58428;49.478;10.986;2022-08-21T12:38:59;98354.47;;;25.95;51.03
70815;BME280;58428;49.478;10.986;2022-08-21T12:44:17;98353.97;;;26.39;49.01
70815;BME280;58428;49.478;10.986;2022-08-21T12:46:57;98347.13;;;26.43;48.88
70815;BME280;58428;49.478;10.986;2022-08-21T12:49:33;98342.28;;;26.63;48.30
70815;BME280;58428;49.478;10.986;2022-08-21T12:54:41;98344.34;;;27.10;48.06
70815;BME280;58428;49.478;10.986;2022-08-21T12:57:08;98332.63;;;27.02;47.76
70815;BME280;58428;49.478;10.986;2022-08-21T12:59:43;98340.16;;;26.86;48.30
70815;BME280;58428;49.478;10.986;2022-08-21T13:02:16;98335.34;;;26.71;46.43
70815;BME280;58428;49.478;10.986;2022-08-21T13:04:43;98337.94;;;26.46;47.53
70815;BME280;58428;49.478;10.986;2022-08-21T13:07:16;98327.03;;;26.20;47.12
70815;BME280;58428;49.478;10.986;2022-08-21T13:09:52;98325.91;;;25.98;47.02
70815;BME280;58428;49.478;10.986;2022-08-21T13:12:20;98326.41;;;25.93;47.68
70815;BME280;58428;49.478;10.986;2022-08-21T13:14:48;98322.91;;;26.09;48.23
70815;BME280;58428;49.478;10.986;2022-08-21T13:17:17;98327.81;;;26.21;46.48
70815;BME280;58428;49.478;10.986;2022-08-21T13:20:03;98332.63;;;26.36;45.09
70815;BME280;58428;49.478;10.986;2022-08-21T13:22:31;98327.53;;;26.34;46.00
70815;BME280;58428;49.478;10.986;2022-08-21T13:24:57;98329.25;;;26.28;44.42
70815;BME280;58428;49.478;10.986;2022-08-21T13:27:25;98323.78;;;26.41;45.87
70815;BME280;58428;49.478;10.986;2022-08-21T13:30:07;98316.25;;;26.57;44.60
70815;BME280;58428;49.478;10.986;2022-08-21T13:32:37;98321.31;;;26.78;45.93
70815;BME280;58428;49.478;10.986;2022-08-21T13:35:12;98319.03;;;26.73;43.71
70815;BME280;58428;49.478;10.986;2022-08-21T13:37:40;98318.19;;;26.76;45.15
70815;BME280;58428;49.478;10.986;2022-08-21T13:40:12;98314.88;;;26.65;44.48
70815;BME280;58428;49.478;10.986;2022-08-21T13:42:42;98312.19;;;26.62;44.68
70815;BME280;58428;49.478;10.986;2022-08-21T13:45:21;98316.22;;;26.26;42.77
70815;BME280;58428;49.478;10.986;2022-08-21T13:47:47;98307.63;;;26.01;44.77
70815;BME280;58428;49.478;10.986;2022-08-21T13:50:14;98312.59;;;26.09;45.72
70815;BME280;58428;49.478;10.986;2022-08-21T13:55:22;98313.53;;;26.03;44.88
70815;BME280;58428;49.478;10.986;2022-08-21T13:58:01;98312.81;;;25.99;44.91
70815;BME280;58428;49.478;10.986;2022-08-21T14:00:30;98309.47;;;26.07;45.60
70815;BME280;58428;49.478;10.986;2022-08-21T14:03:04;98314.22;;;26.26;44.98
70815;BME280;58428;49.478;10.986;2022-08-21T14:05:35;98305.22;;;26.38;45.04
70815;BME280;58428;49.478;10.986;2022-08-21T14:08:11;98305.69;;;26.52;45.98
70815;BME280;58428;49.478;10.986;2022-08-21T14:10:43;98308.97;;;26.63;43.82
70815;BME280;58428;49.478;10.986;2022-08-21T14:13:34;98309.44;;;26.62;44.57
70815;BME280;58428;49.478;10.986;2022-08-21T14:16:15;98306.38;;;26.72;45.45
70815;BME280;58428;49.478;10.986;2022-08-21T14:21:34;98308.38;;;26.56;42.42
70815;BME280;58428;49.478;10.986;2022-08-21T14:24:09;98297.63;;;26.58;44.06
70815;BME280;58428;49.478;10.986;2022-08-21T14:26:43;98303.00;;;26.49;42.92
70815;BME280;58428;49.478;10.986;2022-08-21T14:29:10;98298.78;;;26.25;42.65
70815;BME280;58428;49.478;10.986;2022-08-21T14:31:37;98286.81;;;26.28;43.56
70815;BME280;58428;49.478;10.986;2022-08-21T14:34:03;98291.19;;;26.29;42.80
70815;BME280;58428;49.478;10.986;2022-08-21T14:36:29;98288.69;;;26.15;42.07
70815;BME280;58428;49.478;10.986;2022-08-21T14:38:55;98280.16;;;26.26;43.29